Montello, Nevada
Current Conditions -  °F | °C
As of 8:35 AM on Wednesday 22 Oct 2014 (Local Time) from KENV Reporting Station
Clear Clear  
Wind Chill: 45°   Ceiling: Unl
Heat Index: 45°   Visibility: 10mi
Dew Point: 30°   Wind: 3mph
Humidity: 57%   Direction: 230°SW
Pressure: 30.21"   Gusts: NA
Location:  41.26°N, 114.2°W
Report Text: KENV 221535Z AUTO 23003KT 10SM CLR 07/M01 A3021 RMK AO1
Loading
Personal Weather Stations






























Interactive Weather Map
Tropical Storm Tracking
New forecast layout! Learn more

10-Day Weather Forecast

Advertisements
Track Severe Weather on mobile